Time;durP1;ratioP1;P1;durP2;ratioP2;P2;SDS_P1;SDS_P2;PMS_P1;PMS_P2;Temp;Humidity;BMP_temperature;BMP_pressure;BME280_temperature;BME280_humidity;BME280_pressure;Samples;Min_cycle;Max_cycle;Signal;HPM_P1;HPM_P2
2022/03/26 00:01:44;;;;;;;74.78;55.33;;;18.50;50.20;;;;;;4984269;28;93507;-87
2022/03/26 00:04:11;;;;;;;75.88;55.05;;;18.50;50.20;;;;;;5004333;28;90144;-88
2022/03/26 00:06:38;;;;;;;76.45;55.78;;;18.50;50.20;;;;;;5006868;28;90297;-87
2022/03/26 00:09:04;;;;;;;78.15;56.00;;;18.50;50.20;;;;;;5008231;28;90976;-87
2022/03/26 00:11:30;;;;;;;75.22;55.67;;;18.50;50.10;;;;;;5006322;28;91770;-87
2022/03/26 00:13:56;;;;;;;76.03;56.00;;;18.50;50.10;;;;;;5006528;28;90830;-87
2022/03/26 00:16:22;;;;;;;75.22;55.40;;;18.40;50.10;;;;;;5001580;28;88975;-87
2022/03/26 00:18:50;;;;;;;77.15;55.88;;;18.40;50.10;;;;;;4998116;28;90547;-87
2022/03/26 00:21:15;;;;;;;79.35;57.13;;;18.40;50.10;;;;;;5006130;28;90832;-87
2022/03/26 00:23:41;;;;;;;77.63;56.83;;;18.40;50.10;;;;;;5001655;28;90847;-87
2022/03/26 00:26:10;;;;;;;74.30;54.88;;;18.40;50.10;;;;;;5002584;28;90254;-87
2022/03/26 00:28:37;;;;;;;77.35;57.05;;;18.40;50.10;;;;;;5000041;28;90970;-87
2022/03/26 00:31:06;;;;;;;75.88;56.05;;;18.40;50.10;;;;;;4994755;28;93173;-87
2022/03/26 00:33:32;;;;;;;76.47;56.40;;;18.40;50.10;;;;;;5005618;28;90149;-87
2022/03/26 00:35:58;;;;;;;76.95;55.58;;;18.30;50.10;;;;;;5013848;28;90126;-87
2022/03/26 00:38:23;;;;;;;74.35;55.17;;;18.30;50.10;;;;;;5011042;28;89796;-87
2022/03/26 00:40:49;;;;;;;75.28;55.08;;;18.30;50.10;;;;;;5005033;28;89005;-87
2022/03/26 00:43:15;;;;;;;75.75;55.28;;;18.30;50.20;;;;;;5008113;28;89470;-87
2022/03/26 00:45:42;;;;;;;78.07;57.03;;;18.20;50.10;;;;;;5013855;28;89420;-87
2022/03/26 00:48:08;;;;;;;76.80;55.83;;;18.20;50.10;;;;;;5002133;28;91992;-87
2022/03/26 00:50:34;;;;;;;78.00;57.08;;;18.20;50.20;;;;;;5006606;28;90460;-86
2022/03/26 00:53:00;;;;;;;76.28;55.78;;;18.20;50.20;;;;;;4995594;28;90498;-87
2022/03/26 00:55:26;;;;;;;74.25;55.08;;;18.20;50.20;;;;;;5004066;28;90672;-87
2022/03/26 00:57:51;;;;;;;76.32;55.42;;;18.10;50.20;;;;;;4995550;28;90874;-87
2022/03/26 01:00:17;;;;;;;74.68;55.47;;;18.10;50.20;;;;;;5001359;28;89503;-87
2022/03/26 01:02:43;;;;;;;74.60;55.33;;;18.10;50.20;;;;;;4987495;28;89992;-87
2022/03/26 01:05:10;;;;;;;76.20;56.28;;;18.10;50.30;;;;;;5003331;28;91150;-87
2022/03/26 01:07:36;;;;;;;74.53;56.03;;;18.10;50.20;;;;;;5000604;28;90626;-87
2022/03/26 01:10:04;;;;;;;77.70;56.38;;;18.00;50.20;;;;;;4996661;28;94091;-87
2022/03/26 01:12:30;;;;;;;77.55;55.92;;;18.00;50.30;;;;;;4999052;28;90949;-87
2022/03/26 01:14:56;;;;;;;75.47;55.67;;;18.00;50.30;;;;;;5000074;28;89874;-87
2022/03/26 01:17:22;;;;;;;77.60;56.95;;;18.00;50.30;;;;;;4997945;28;89895;-87
2022/03/26 01:19:48;;;;;;;75.18;55.47;;;18.00;50.40;;;;;;4981356;28;91394;-87
2022/03/26 01:22:13;;;;;;;74.78;55.40;;;18.00;50.40;;;;;;5005926;28;90162;-87
2022/03/26 01:24:39;;;;;;;76.70;57.15;;;17.90;50.50;;;;;;5010740;28;90079;-87
2022/03/26 01:27:06;;;;;;;73.97;54.78;;;17.90;50.40;;;;;;4997791;28;89989;-87
2022/03/26 01:29:32;;;;;;;74.50;55.15;;;17.90;50.40;;;;;;4998913;28;89677;-87
2022/03/26 01:31:58;;;;;;;74.90;54.97;;;17.90;50.40;;;;;;4997547;28;90239;-87
2022/03/26 01:34:26;;;;;;;73.88;54.75;;;17.90;50.40;;;;;;5001620;28;89738;-87
2022/03/26 01:36:52;;;;;;;78.13;56.08;;;17.80;50.40;;;;;;4995203;28;92453;-88
2022/03/26 01:39:20;;;;;;;75.00;55.15;;;17.90;50.50;;;;;;5003953;28;91427;-88
2022/03/26 01:41:46;;;;;;;77.43;56.30;;;17.80;50.50;;;;;;4978704;28;91391;-87
2022/03/26 01:44:15;;;;;;;74.13;55.35;;;17.80;50.50;;;;;;5004350;28;89498;-87
2022/03/26 01:46:49;;;;;;;75.70;55.40;;;17.80;50.60;;;;;;5003099;28;91317;-87
2022/03/26 01:49:16;;;;;;;74.97;55.30;;;17.70;50.50;;;;;;4997400;28;90595;-87
2022/03/26 01:51:42;;;;;;;75.40;55.47;;;17.80;50.60;;;;;;4995517;28;89971;-87
2022/03/26 01:54:08;;;;;;;75.47;55.35;;;17.70;50.60;;;;;;4998493;28;93878;-87
2022/03/26 01:56:34;;;;;;;75.03;55.35;;;17.70;50.80;;;;;;5001769;28;91583;-87
2022/03/26 01:59:01;;;;;;;75.28;55.28;;;17.70;50.70;;;;;;5007391;28;91003;-88
2022/03/26 02:01:26;;;;;;;73.55;55.17;;;17.70;50.70;;;;;;4985696;28;96006;-88
2022/03/26 02:03:52;;;;;;;77.13;55.60;;;17.70;50.70;;;;;;5001240;28;89466;-87
2022/03/26 02:06:19;;;;;;;74.57;54.83;;;17.60;50.70;;;;;;4997904;28;89910;-87
2022/03/26 02:08:45;;;;;;;73.53;54.53;;;17.60;50.80;;;;;;4979981;28;91044;-86
2022/03/26 02:11:11;;;;;;;74.28;55.63;;;17.60;50.80;;;;;;4992874;28;90167;-87
2022/03/26 02:13:54;;;;;;;75.68;55.97;;;17.50;50.70;;;;;;4994036;28;91191;-87
2022/03/26 02:16:21;;;;;;;74.63;55.40;;;17.60;50.90;;;;;;4993614;28;91427;-87
2022/03/26 02:18:48;;;;;;;73.15;54.58;;;17.50;50.80;;;;;;4996797;28;90497;-87
2022/03/26 02:21:15;;;;;;;73.85;55.58;;;17.50;50.90;;;;;;4985010;28;93956;-87
2022/03/26 02:23:41;;;;;;;77.82;55.70;;;17.50;50.90;;;;;;4999128;28;90555;-86
2022/03/26 02:26:07;;;;;;;74.00;54.90;;;17.50;51.60;;;;;;5002163;28;93835;-86
2022/03/26 02:28:34;;;;;;;73.00;54.38;;;17.40;50.90;;;;;;4983885;28;94045;-86
2022/03/26 02:30:59;;;;;;;71.80;53.58;;;17.40;50.90;;;;;;5004580;28;90049;-87
2022/03/26 02:33:25;;;;;;;73.40;54.20;;;17.40;50.90;;;;;;4995705;28;89525;-87
2022/03/26 02:35:51;;;;;;;73.53;54.67;;;17.40;51.00;;;;;;5003493;28;89639;-86
2022/03/26 02:38:16;;;;;;;73.45;55.10;;;17.40;51.00;;;;;;5017297;28;90073;-86
2022/03/26 02:40:42;;;;;;;73.05;54.65;;;17.40;51.00;;;;;;5009223;28;90205;-86
2022/03/26 02:43:08;;;;;;;73.80;55.10;;;17.40;51.00;;;;;;5007162;28;91423;-86
2022/03/26 02:45:34;;;;;;;75.70;55.00;;;17.40;51.00;;;;;;5003066;28;90188;-86
2022/03/26 02:48:00;;;;;;;77.43;55.67;;;17.30;51.00;;;;;;4987501;28;94490;-86
2022/03/26 02:50:25;;;;;;;76.60;55.60;;;17.30;51.00;;;;;;5003798;28;90741;-86
2022/03/26 02:52:51;;;;;;;73.20;54.45;;;17.30;51.10;;;;;;5004907;28;90228;-86
2022/03/26 02:55:17;;;;;;;72.97;53.72;;;17.30;51.10;;;;;;5004627;28;90228;-86
2022/03/26 02:57:46;;;;;;;74.65;55.30;;;17.30;51.10;;;;;;5001979;28;93039;-86
2022/03/26 03:00:13;;;;;;;74.60;55.17;;;17.20;51.10;;;;;;4981315;28;90725;-86
2022/03/26 03:02:40;;;;;;;74.63;55.15;;;17.20;51.10;;;;;;5002585;28;89691;-86
2022/03/26 03:05:06;;;;;;;74.38;54.78;;;17.20;51.20;;;;;;5008801;28;93178;-87
2022/03/26 03:07:32;;;;;;;70.53;53.67;;;17.20;51.20;;;;;;5010975;28;91949;-86
2022/03/26 03:09:58;;;;;;;73.90;54.75;;;17.20;51.20;;;;;;5004489;28;90018;-87
2022/03/26 03:12:26;;;;;;;75.38;54.08;;;17.20;51.10;;;;;;5007008;28;90066;-86
2022/03/26 03:14:52;;;;;;;74.25;54.47;;;17.20;51.30;;;;;;4987593;28;93701;-86
2022/03/26 03:17:17;;;;;;;72.18;54.17;;;17.20;51.20;;;;;;5002613;28;91614;-87
2022/03/26 03:19:43;;;;;;;74.57;54.55;;;17.10;51.20;;;;;;4999135;28;90519;-86
2022/03/26 03:22:09;;;;;;;73.57;54.65;;;17.10;51.20;;;;;;4999538;28;93907;-87
2022/03/26 03:24:35;;;;;;;73.05;54.55;;;17.10;51.20;;;;;;5002082;28;90332;-86
2022/03/26 03:27:00;;;;;;;73.30;54.13;;;17.10;51.20;;;;;;5004192;28;91647;-87
2022/03/26 03:29:26;;;;;;;74.63;54.80;;;17.10;51.30;;;;;;5006776;28;89826;-87
2022/03/26 03:31:52;;;;;;;72.38;53.85;;;17.10;51.40;;;;;;5009662;28;88762;-87
2022/03/26 03:34:17;;;;;;;72.45;54.03;;;17.00;51.30;;;;;;5001709;28;90731;-86
2022/03/26 03:36:43;;;;;;;72.78;54.58;;;17.00;51.30;;;;;;4984845;28;92879;-87
2022/03/26 03:39:09;;;;;;;72.97;54.78;;;17.00;51.30;;;;;;4988568;28;91863;-87
2022/03/26 03:41:34;;;;;;;73.40;54.42;;;17.00;51.30;;;;;;5021274;28;91013;-87
2022/03/26 03:44:02;;;;;;;73.18;55.70;;;17.00;51.30;;;;;;4988410;28;92085;-87
2022/03/26 03:46:30;;;;;;;72.25;54.10;;;17.10;51.40;;;;;;5004624;28;89841;-87
2022/03/26 03:48:56;;;;;;;74.38;54.97;;;17.10;51.30;;;;;;5001368;28;89844;-86
2022/03/26 03:51:21;;;;;;;73.07;54.78;;;17.10;51.30;;;;;;4992776;28;90066;-86
2022/03/26 03:53:47;;;;;;;73.03;54.72;;;17.20;51.30;;;;;;5005616;28;90662;-86
2022/03/26 03:56:13;;;;;;;74.47;54.50;;;17.10;51.20;;;;;;5003245;28;89503;-86
2022/03/26 03:58:38;;;;;;;73.45;54.28;;;17.20;51.30;;;;;;5003668;28;90112;-87
2022/03/26 04:01:04;;;;;;;75.10;54.63;;;17.20;51.10;;;;;;5000956;28;90045;-86
2022/03/26 04:03:30;;;;;;;72.88;54.22;;;17.20;51.10;;;;;;5000167;28;92869;-87
2022/03/26 04:05:56;;;;;;;74.20;53.97;;;17.30;51.10;;;;;;4980805;28;92791;-87
2022/03/26 04:08:21;;;;;;;70.60;53.50;;;17.20;51.00;;;;;;4999403;28;90845;-86
2022/03/26 04:10:47;;;;;;;71.72;53.97;;;17.30;51.10;;;;;;4997573;28;90940;-87
2022/03/26 04:13:13;;;;;;;71.65;53.33;;;17.30;50.90;;;;;;5000385;28;90858;-87
2022/03/26 04:15:39;;;;;;;72.53;54.42;;;17.30;50.90;;;;;;5001607;28;90281;-87
2022/03/26 04:18:06;;;;;;;73.22;54.78;;;17.30;50.90;;;;;;4991588;28;90944;-87
2022/03/26 04:20:33;;;;;;;73.93;54.22;;;17.30;50.90;;;;;;4987999;28;89837;-87
2022/03/26 04:22:58;;;;;;;73.70;54.92;;;17.30;51.00;;;;;;5008619;28;91551;-87
2022/03/26 04:25:24;;;;;;;72.40;54.13;;;17.30;50.90;;;;;;5007056;28;90645;-87
2022/03/26 04:27:50;;;;;;;72.80;54.22;;;17.30;50.80;;;;;;5002224;28;92205;-86
2022/03/26 04:30:16;;;;;;;75.15;55.80;;;17.30;50.80;;;;;;5001871;28;92675;-87
2022/03/26 04:32:42;;;;;;;71.68;53.47;;;17.30;50.80;;;;;;4999118;28;89972;-87
2022/03/26 04:35:09;;;;;;;75.72;55.28;;;17.20;50.80;;;;;;5002585;28;91672;-87
2022/03/26 04:37:35;;;;;;;73.25;54.33;;;17.20;50.80;;;;;;4999902;28;90127;-86
2022/03/26 04:40:03;;;;;;;72.88;54.22;;;17.20;50.90;;;;;;5004949;28;90504;-86
2022/03/26 04:42:28;;;;;;;72.88;54.33;;;17.20;50.80;;;;;;5013321;28;91513;-86
2022/03/26 04:44:54;;;;;;;72.80;54.78;;;17.20;50.80;;;;;;4985311;28;93112;-87
2022/03/26 04:47:19;;;;;;;73.18;53.90;;;17.20;50.80;;;;;;4997017;28;90326;-87
2022/03/26 04:49:46;;;;;;;73.38;55.25;;;17.10;50.80;;;;;;4999828;28;89862;-87
2022/03/26 04:52:12;;;;;;;72.25;53.47;;;17.20;50.90;;;;;;4982550;28;93894;-87
2022/03/26 04:54:38;;;;;;;72.63;54.20;;;17.10;50.90;;;;;;4997772;28;93989;-87
2022/03/26 04:57:05;;;;;;;72.38;53.13;;;17.10;51.00;;;;;;4973978;28;90416;-87
2022/03/26 04:59:31;;;;;;;73.35;55.10;;;17.10;50.90;;;;;;4996140;28;89537;-86
2022/03/26 05:01:57;;;;;;;73.00;53.95;;;17.10;50.80;;;;;;4985166;28;93305;-87
2022/03/26 05:04:22;;;;;;;72.95;54.45;;;17.10;50.80;;;;;;4999873;28;89816;-86
2022/03/26 05:06:48;;;;;;;73.88;54.80;;;17.10;50.70;;;;;;5000116;28;90667;-86
2022/03/26 05:09:14;;;;;;;73.15;54.83;;;17.10;50.70;;;;;;4995438;28;88695;-86
2022/03/26 05:11:40;;;;;;;73.00;53.58;;;17.20;50.80;;;;;;4996849;28;90940;-87
2022/03/26 05:14:06;;;;;;;74.00;55.13;;;17.20;50.90;;;;;;4977323;28;92236;-87
2022/03/26 05:16:32;;;;;;;70.13;53.63;;;17.20;51.10;;;;;;4982865;28;90753;-86
2022/03/26 05:18:57;;;;;;;69.88;52.17;;;17.20;51.30;;;;;;4982923;28;90461;-86
2022/03/26 05:21:23;;;;;;;71.32;53.55;;;17.20;51.20;;;;;;4981833;28;92537;-87
2022/03/26 05:23:48;;;;;;;74.32;54.40;;;17.30;51.00;;;;;;5001395;28;91193;-87
2022/03/26 05:26:14;;;;;;;71.85;53.92;;;17.50;51.20;;;;;;5001666;28;90890;-87
2022/03/26 05:28:40;;;;;;;73.57;54.22;;;17.50;51.00;;;;;;4994417;28;89955;-86
2022/03/26 05:31:05;;;;;;;73.43;54.72;;;17.60;50.90;;;;;;4999037;28;91218;-86
2022/03/26 05:33:31;;;;;;;72.82;54.15;;;17.70;50.90;;;;;;5009104;28;89099;-87
2022/03/26 05:35:58;;;;;;;75.07;54.50;;;17.70;50.60;;;;;;4982485;28;89476;-87
2022/03/26 05:38:23;;;;;;;74.47;54.70;;;17.80;50.60;;;;;;5004170;28;91253;-87
2022/03/26 05:40:49;;;;;;;73.50;54.95;;;17.80;50.50;;;;;;5001978;28;92180;-87
2022/03/26 05:43:15;;;;;;;71.70;53.50;;;17.90;50.40;;;;;;5006549;28;89955;-87
2022/03/26 05:45:41;;;;;;;71.88;53.88;;;18.00;50.30;;;;;;5015627;28;90326;-87
2022/03/26 05:48:08;;;;;;;75.65;55.65;;;18.00;50.10;;;;;;4998190;28;90437;-87
2022/03/26 05:50:34;;;;;;;71.97;53.88;;;18.10;50.10;;;;;;4974344;28;94920;-87
2022/03/26 05:53:01;;;;;;;71.30;53.72;;;18.10;50.50;;;;;;4995814;28;91099;-87
2022/03/26 05:55:27;;;;;;;72.80;53.15;;;18.10;49.90;;;;;;4994678;28;90294;-88
2022/03/26 05:57:52;;;;;;;73.88;54.35;;;18.20;49.70;;;;;;5002631;28;90409;-87
2022/03/26 06:00:18;;;;;;;74.00;54.30;;;18.20;49.80;;;;;;4995589;28;91032;-87
2022/03/26 06:02:44;;;;;;;73.30;54.30;;;18.20;49.60;;;;;;5000634;28;90085;-88
2022/03/26 06:05:10;;;;;;;73.03;54.30;;;18.30;49.70;;;;;;4998154;28;91211;-88
2022/03/26 06:07:36;;;;;;;73.35;55.20;;;18.30;49.70;;;;;;4999712;28;89456;-87
2022/03/26 06:10:03;;;;;;;76.63;55.63;;;18.30;49.40;;;;;;4983019;28;92245;-88
2022/03/26 06:12:28;;;;;;;74.80;54.63;;;18.40;49.40;;;;;;5000990;28;90373;-87
2022/03/26 06:14:57;;;;;;;70.25;52.67;;;18.40;49.40;;;;;;5002579;28;94511;-87
2022/03/26 06:17:24;;;;;;;73.97;54.42;;;18.40;49.40;;;;;;4978834;28;90890;-87
2022/03/26 06:19:50;;;;;;;73.53;54.95;;;18.40;49.30;;;;;;4997121;28;90879;-87
2022/03/26 06:22:15;;;;;;;72.85;54.58;;;18.40;49.20;;;;;;4978233;28;91003;-87
2022/03/26 06:24:41;;;;;;;72.00;53.45;;;18.50;49.20;;;;;;4977957;28;89953;-87
2022/03/26 06:27:07;;;;;;;72.55;54.38;;;18.50;49.20;;;;;;5002727;28;89405;-87
2022/03/26 06:29:33;;;;;;;73.05;54.83;;;18.50;49.20;;;;;;4978993;28;93260;-87
2022/03/26 06:32:01;;;;;;;74.57;54.65;;;18.50;49.20;;;;;;4981283;28;93990;-87
2022/03/26 06:34:27;;;;;;;71.72;52.97;;;18.60;49.20;;;;;;4999995;28;91457;-87
2022/03/26 06:36:53;;;;;;;75.55;55.95;;;18.60;49.20;;;;;;4989261;28;89827;-87
2022/03/26 06:39:18;;;;;;;73.30;54.40;;;18.60;49.10;;;;;;4998153;28;93148;-87
2022/03/26 06:41:44;;;;;;;75.05;55.38;;;18.60;49.10;;;;;;4999320;28;90357;-87
2022/03/26 06:44:10;;;;;;;74.75;54.58;;;18.60;49.10;;;;;;5002497;28;90280;-87
2022/03/26 06:46:37;;;;;;;77.15;56.67;;;18.70;49.00;;;;;;5021839;28;88858;-87
2022/03/26 06:49:04;;;;;;;75.93;54.70;;;18.70;49.00;;;;;;5006752;28;89486;-86
2022/03/26 06:51:31;;;;;;;74.85;55.58;;;18.70;48.90;;;;;;5003726;28;89730;-87
2022/03/26 06:53:58;;;;;;;76.22;54.80;;;18.70;49.00;;;;;;5002141;28;90924;-87
2022/03/26 06:56:23;;;;;;;73.50;54.20;;;18.70;48.80;;;;;;4999402;28;90213;-87
2022/03/26 06:58:49;;;;;;;74.40;54.53;;;18.70;48.80;;;;;;4996977;28;90417;-87
2022/03/26 07:01:14;;;;;;;74.47;55.53;;;18.80;48.80;;;;;;4995241;28;90635;-89
2022/03/26 07:03:40;;;;;;;72.43;53.13;;;18.80;48.80;;;;;;4979990;28;90031;-86
2022/03/26 07:06:06;;;;;;;72.40;54.08;;;18.80;48.90;;;;;;4992230;28;90141;-86
2022/03/26 07:08:31;;;;;;;76.25;55.95;;;18.80;48.90;;;;;;4965142;28;93035;-87
2022/03/26 07:10:59;;;;;;;75.07;55.45;;;18.90;48.80;;;;;;4990939;28;92264;-87
2022/03/26 07:13:24;;;;;;;75.10;55.28;;;18.90;48.80;;;;;;4975883;28;90000;-86
2022/03/26 07:15:50;;;;;;;72.43;53.88;;;18.90;48.70;;;;;;4994849;28;90925;-87
2022/03/26 07:18:16;;;;;;;75.65;55.42;;;18.90;48.70;;;;;;4992859;28;95684;-88
2022/03/26 07:20:42;;;;;;;70.18;52.40;;;18.90;48.80;;;;;;4992023;28;92402;-88
2022/03/26 07:23:07;;;;;;;72.18;54.03;;;19.00;48.70;;;;;;4992468;28;90561;-88
2022/03/26 07:25:33;;;;;;;73.35;53.90;;;19.00;48.80;;;;;;5002658;28;89743;-89
2022/03/26 07:27:59;;;;;;;72.63;53.88;;;19.00;48.70;;;;;;4984894;28;91037;-88
2022/03/26 07:30:25;;;;;;;75.28;54.33;;;19.00;48.70;;;;;;4999038;28;91564;-89
2022/03/26 07:32:50;;;;;;;72.97;54.22;;;19.00;48.60;;;;;;4994794;28;96370;-90
2022/03/26 07:35:16;;;;;;;77.32;53.95;;;19.00;48.60;;;;;;4997535;28;90159;-90
2022/03/26 07:37:43;;;;;;;72.50;52.67;;;19.10;48.70;;;;;;4997481;28;93485;-89
2022/03/26 07:40:10;;;;;;;73.18;53.70;;;19.10;48.70;;;;;;4981624;28;92074;-89
2022/03/26 07:42:36;;;;;;;72.70;53.10;;;19.10;48.60;;;;;;5003078;28;91725;-89
2022/03/26 07:45:04;;;;;;;72.13;53.42;;;19.10;48.60;;;;;;4985459;28;90045;-89
2022/03/26 07:47:30;;;;;;;71.05;52.63;;;19.10;48.70;;;;;;5022849;28;92411;-89
2022/03/26 07:49:56;;;;;;;72.22;52.80;;;19.10;48.70;;;;;;5006853;28;90108;-89
2022/03/26 07:52:22;;;;;;;73.10;53.58;;;19.10;48.60;;;;;;4994826;28;90817;-89
2022/03/26 07:54:47;;;;;;;71.35;52.15;;;19.10;48.60;;;;;;4996537;28;90072;-89
2022/03/26 07:57:13;;;;;;;72.05;52.83;;;19.10;48.60;;;;;;4978926;28;93381;-89
2022/03/26 07:59:39;;;;;;;70.20;51.97;;;19.20;48.70;;;;;;4998437;28;89764;-87
2022/03/26 08:02:05;;;;;;;70.75;52.33;;;19.20;48.70;;;;;;5000128;28;95158;-87
2022/03/26 08:04:30;;;;;;;74.00;52.85;;;19.20;48.70;;;;;;4996956;28;90435;-87
2022/03/26 08:06:56;;;;;;;71.35;51.85;;;19.20;48.60;;;;;;4997300;28;90993;-87
2022/03/26 08:09:22;;;;;;;72.80;52.67;;;19.20;48.70;;;;;;4994193;28;90845;-87
2022/03/26 08:11:48;;;;;;;73.38;52.88;;;19.20;48.70;;;;;;4991785;28;91573;-87
2022/03/26 08:14:13;;;;;;;72.95;52.63;;;19.20;48.60;;;;;;4995165;28;89902;-87
2022/03/26 08:16:39;;;;;;;72.75;52.13;;;19.20;48.70;;;;;;4991227;28;95148;-89
2022/03/26 08:19:07;;;;;;;71.35;52.10;;;19.30;48.70;;;;;;4976239;28;92538;-89
2022/03/26 08:21:35;;;;;;;71.47;52.28;;;19.30;48.70;;;;;;4974026;28;90498;-89
2022/03/26 08:24:03;;;;;;;71.43;52.17;;;19.30;48.60;;;;;;4986275;28;93451;-89
2022/03/26 08:26:29;;;;;;;72.80;52.88;;;19.30;48.60;;;;;;4978200;28;94187;-89
2022/03/26 08:28:58;;;;;;;73.32;52.65;;;19.30;48.50;;;;;;4995759;28;94475;-89
2022/03/26 08:31:26;;;;;;;72.13;52.55;;;19.30;48.60;;;;;;5000658;28;90742;-90
2022/03/26 08:33:52;;;;;;;75.78;52.90;;;19.40;48.60;;;;;;5002100;28;90059;-88
2022/03/26 08:36:18;;;;;;;75.38;53.05;;;19.30;48.60;;;;;;4990996;28;90851;-87
2022/03/26 08:38:45;;;;;;;72.93;52.92;;;19.40;48.60;;;;;;4991410;28;90239;-89
2022/03/26 08:41:16;;;;;;;76.38;53.72;;;19.40;48.60;;;;;;4993188;28;90524;-89
2022/03/26 08:43:41;;;;;;;74.30;52.88;;;19.40;48.60;;;;;;4999736;28;90992;-89
2022/03/26 08:46:07;;;;;;;75.22;53.20;;;19.40;48.60;;;;;;4978106;28;92404;-89
2022/03/26 08:48:34;;;;;;;74.10;53.63;;;19.40;48.60;;;;;;4995680;28;90082;-89
2022/03/26 08:51:00;;;;;;;75.05;52.90;;;19.40;48.60;;;;;;4993576;28;90135;-89
2022/03/26 08:53:26;;;;;;;78.85;53.08;;;19.40;48.60;;;;;;4985276;28;90649;-89
2022/03/26 08:55:52;;;;;;;75.63;53.53;;;19.40;48.60;;;;;;4995937;28;91442;-89
2022/03/26 08:58:18;;;;;;;75.28;53.47;;;19.40;48.60;;;;;;5003200;28;90481;-90
2022/03/26 09:00:47;;;;;;;75.40;53.58;;;19.40;48.60;;;;;;4998946;28;91908;-89
2022/03/26 09:03:14;;;;;;;76.97;53.55;;;19.30;48.60;;;;;;4998619;28;89771;-89
2022/03/26 09:05:39;;;;;;;74.22;53.42;;;19.30;48.60;;;;;;4980387;28;92892;-89
2022/03/26 09:08:05;;;;;;;77.28;54.10;;;19.40;48.70;;;;;;5001015;28;91288;-88
2022/03/26 09:10:32;;;;;;;78.03;54.17;;;19.40;48.70;;;;;;4995743;28;89802;-89
2022/03/26 09:12:57;;;;;;;75.53;53.88;;;19.40;48.70;;;;;;4995342;28;89630;-89
2022/03/26 09:15:23;;;;;;;77.93;54.22;;;19.30;48.70;;;;;;4981495;28;93114;-89
2022/03/26 09:17:49;;;;;;;75.78;53.75;;;19.30;48.70;;;;;;4994102;28;91850;-91
2022/03/26 09:20:14;;;;;;;76.68;54.25;;;19.30;48.70;;;;;;4999227;28;90442;-89
2022/03/26 09:22:40;;;;;;;75.50;53.58;;;19.30;48.70;;;;;;4997344;28;89508;-90
2022/03/26 09:25:06;;;;;;;80.30;54.13;;;19.30;48.70;;;;;;4997730;28;90782;-89
2022/03/26 09:27:32;;;;;;;77.78;54.10;;;19.30;48.70;;;;;;4990049;28;92436;-90
2022/03/26 09:29:57;;;;;;;75.07;54.13;;;19.30;48.80;;;;;;5000212;28;90022;-90
2022/03/26 09:32:23;;;;;;;76.65;54.00;;;19.30;48.70;;;;;;5020156;28;89167;-90
2022/03/26 09:34:49;;;;;;;75.30;54.53;;;19.30;48.70;;;;;;4986530;28;91909;-90
2022/03/26 09:37:21;;;;;;;78.40;54.25;;;19.30;48.80;;;;;;4985538;28;92194;-91
2022/03/26 09:39:47;;;;;;;76.60;54.72;;;19.30;48.80;;;;;;4998750;28;89930;-89
2022/03/26 09:42:14;;;;;;;79.53;55.05;;;19.20;48.80;;;;;;4988064;28;90558;-89
2022/03/26 09:44:40;;;;;;;76.47;54.85;;;19.20;48.80;;;;;;4999601;28;91192;-89
2022/03/26 09:47:07;;;;;;;78.90;54.75;;;19.20;48.80;;;;;;4977111;28;93503;-90
2022/03/26 09:49:33;;;;;;;81.75;54.45;;;19.20;48.80;;;;;;4999877;28;90207;-89
2022/03/26 09:51:59;;;;;;;76.88;54.65;;;19.30;48.90;;;;;;5000477;28;89860;-89
2022/03/26 09:54:25;;;;;;;81.00;54.60;;;19.20;48.90;;;;;;4999079;28;90656;-88
2022/03/26 09:56:51;;;;;;;77.78;55.03;;;19.20;48.90;;;;;;5001213;28;91012;-89
2022/03/26 09:59:21;;;;;;;76.78;54.72;;;19.20;48.90;;;;;;5002370;28;90121;-90
2022/03/26 10:01:48;;;;;;;78.73;55.00;;;19.20;48.90;;;;;;4973808;28;89936;-90
2022/03/26 10:04:15;;;;;;;80.80;54.90;;;19.20;49.00;;;;;;4989124;28;92154;-89
2022/03/26 10:07:00;;;;;;;80.82;54.92;;;19.20;49.00;;;;;;4977493;28;92256;-88
2022/03/26 10:09:39;;;;;;;77.80;55.50;;;19.20;49.00;;;;;;4977928;28;90882;-89
2022/03/26 10:12:11;;;;;;;84.88;57.63;;;19.20;49.10;;;;;;4996021;28;90339;-89
2022/03/26 10:14:38;;;;;;;86.60;58.22;;;19.20;49.40;;;;;;4993444;28;93146;-89
2022/03/26 10:17:27;;;;;;;86.03;58.78;;;19.20;49.60;;;;;;4979696;28;92929;-87
2022/03/26 10:20:00;;;;;;;93.05;59.15;;;19.30;49.70;;;;;;4982685;28;89693;-87
2022/03/26 10:22:28;;;;;;;90.43;59.15;;;19.30;49.70;;;;;;4995532;28;91620;-87
2022/03/26 10:24:56;;;;;;;94.10;58.92;;;19.30;49.70;;;;;;4998062;28;91425;-86
2022/03/26 10:27:21;;;;;;;87.72;59.65;;;19.40;49.80;;;;;;4998401;28;89345;-87
2022/03/26 10:30:01;;;;;;;87.28;58.97;;;19.40;49.80;;;;;;4987441;28;90208;-87
2022/03/26 10:32:39;;;;;;;89.82;58.15;;;19.40;49.70;;;;;;5021385;28;90811;-88
2022/03/26 10:35:09;;;;;;;90.57;59.22;;;19.40;49.60;;;;;;5007999;28;90693;-87
2022/03/26 10:37:44;;;;;;;95.03;59.63;;;19.40;49.50;;;;;;4981312;28;92883;-87
2022/03/26 10:40:24;;;;;;;86.82;59.15;;;19.40;49.50;;;;;;4995190;28;90109;-87
2022/03/26 10:42:56;;;;;;;89.82;59.28;;;19.50;49.40;;;;;;4998712;28;90246;-88
2022/03/26 10:45:26;;;;;;;95.45;59.80;;;19.40;49.30;;;;;;4971462;28;92800;-88
2022/03/26 10:47:56;;;;;;;96.53;60.08;;;19.50;49.50;;;;;;4983970;28;94636;-88
2022/03/26 10:50:23;;;;;;;93.57;61.00;;;19.50;50.30;;;;;;4995700;28;91275;-88
2022/03/26 10:52:54;;;;;;;92.07;60.22;;;19.60;50.50;;;;;;4987434;28;89404;-88
2022/03/26 10:55:19;;;;;;;92.00;59.60;;;19.50;50.30;;;;;;4981360;28;93025;-88
2022/03/26 10:57:47;;;;;;;91.82;59.70;;;19.60;50.40;;;;;;4985057;28;93099;-87
2022/03/26 11:00:19;;;;;;;86.97;59.30;;;19.60;50.20;;;;;;5000678;28;93516;-87
2022/03/26 11:02:45;;;;;;;91.68;60.17;;;19.60;50.10;;;;;;4991802;28;90166;-88
2022/03/26 11:05:12;;;;;;;91.57;60.00;;;19.60;50.10;;;;;;4978578;28;90238;-88
2022/03/26 11:07:40;;;;;;;89.30;59.53;;;19.60;49.90;;;;;;4976346;28;92946;-88
2022/03/26 11:10:12;;;;;;;93.43;60.28;;;19.60;49.90;;;;;;4971236;28;91157;-87
2022/03/26 11:12:42;;;;;;;;;;;19.70;49.80;;;;;;4992543;28;91612;-87
2022/03/26 11:15:11;;;;;;;94.95;61.17;;;19.60;49.70;;;;;;4996350;28;94223;-86
2022/03/26 11:17:56;;;;;;;101.38;61.83;;;19.70;49.40;;;;;;4994257;28;91272;-86
2022/03/26 11:20:59;;;;;;;97.55;63.47;;;19.60;49.10;;;;;;4980661;28;90159;-85
2022/03/26 11:23:52;;;;;;;102.82;63.45;;;19.70;49.00;;;;;;4997039;28;90114;-84
2022/03/26 11:26:56;;;;;;;102.53;62.47;;;19.70;49.10;;;;;;4981318;28;92234;-86
2022/03/26 11:29:52;;;;;;;100.35;62.78;;;19.70;49.40;;;;;;4988278;28;92107;-86
2022/03/26 11:32:32;;;;;;;96.47;62.80;;;19.70;49.40;;;;;;5011557;28;91254;-86
2022/03/26 11:34:59;;;;;;;100.85;62.85;;;19.70;49.40;;;;;;4988248;28;89645;-86
2022/03/26 11:37:26;;;;;;;103.18;63.35;;;19.70;49.50;;;;;;4987304;28;93804;-85
2022/03/26 11:39:52;;;;;;;100.00;62.72;;;19.70;49.60;;;;;;4998832;28;90745;-85
2022/03/26 11:42:35;;;;;;;97.75;61.90;;;19.70;49.60;;;;;;4983355;28;93046;-86
2022/03/26 11:51:15;;;;;;;97.15;61.58;;;19.80;49.90;;;;;;4989732;28;89906;-86
2022/03/26 11:53:44;;;;;;;92.10;60.55;;;19.80;50.10;;;;;;4994543;28;93794;-86
2022/03/26 11:56:32;;;;;;;91.53;61.00;;;19.80;50.50;;;;;;4996915;28;90487;-87
2022/03/26 11:59:13;;;;;;;95.90;60.75;;;19.80;50.40;;;;;;4982299;28;94759;-86
2022/03/26 12:01:48;;;;;;;92.18;60.42;;;19.90;50.50;;;;;;4989061;28;92522;-86
2022/03/26 12:04:17;;;;;;;95.82;61.53;;;19.90;50.30;;;;;;4979417;28;91135;-86
2022/03/26 12:06:48;;;;;;;91.72;61.78;;;19.90;50.20;;;;;;4989173;28;90867;-87
2022/03/26 12:09:36;;;;;;;93.55;60.25;;;19.90;50.10;;;;;;4980924;28;95366;-87
2022/03/26 12:12:08;;;;;;;92.40;60.53;;;19.90;49.80;;;;;;4994450;28;89833;-86
2022/03/26 12:15:08;;;;;;;92.95;60.33;;;19.90;49.70;;;;;;4995816;28;90170;-86
2022/03/26 12:17:47;;;;;;;91.75;60.17;;;19.90;49.60;;;;;;4978291;28;89946;-87
2022/03/26 12:20:37;;;;;;;97.38;60.88;;;20.00;49.60;;;;;;4992286;28;93477;-88
2022/03/26 12:23:11;;;;;;;88.35;60.80;;;20.00;49.60;;;;;;4995669;28;90607;-87
2022/03/26 12:25:51;;;;;;;88.88;59.85;;;20.00;49.50;;;;;;4994674;28;90261;-87
2022/03/26 12:28:19;;;;;;;100.30;60.47;;;20.00;49.40;;;;;;4991574;28;91927;-87
2022/03/26 12:30:51;;;;;;;98.28;59.92;;;20.00;49.40;;;;;;4987428;28;92207;-87
2022/03/26 12:33:18;;;;;;;93.32;60.28;;;20.00;49.30;;;;;;5016121;28;92106;-87
2022/03/26 12:35:48;;;;;;;92.43;59.80;;;20.00;49.30;;;;;;4996805;28;90992;-87
2022/03/26 12:38:16;;;;;;;95.70;59.60;;;20.10;49.30;;;;;;5001132;28;90004;-87